Terminal Aerodrome Forecast
Issued by NWS Cleveland, OH

Home | Current Version | Previous Version | Graphics & Text | Print | Product List | Glossary On
Versions: 1 2 3 4 5 6 7 8 9 10 11 12 13 14 15 16 17 18 19
000
FTUS41 KCLE 231700
TAFTOL
TAF
KTOL 231739Z 2318/2418 16010KT P6SM SCT025 BKN040 OVC080
      TEMPO 2321/2323 5SM -SHRA BKN025
     FM232300 13012G18KT 4SM -SHRA SCT006 OVC012
     FM240300 12015G25KT 2SM -SHRA OVC006
     FM241000 20015G25KT 5SM BR VCSH BKN012 OVC020=

USA.gov is the U.S. government's official web portal to all federal, state and local government web resources and services.